Time;durP1;ratioP1;P1;durP2;ratioP2;P2;SDS_P1;SDS_P2;PMS_P1;PMS_P2;Temp;Humidity;BMP_temperature;BMP_pressure;BME280_temperature;BME280_humidity;BME280_pressure;Samples;Min_cycle;Max_cycle;Signal;HPM_P1;HPM_P2
2023/06/02 00:08:03;;;;;;;12.10;5.10;;;;;;;12.42;60.83;99166.76;436925;1251;139885;-64
2023/06/02 00:18:10;;;;;;;7.20;3.70;;;;;;;12.23;61.53;99169.77;437208;1251;139170;-63
2023/06/02 00:28:16;;;;;;;4.80;3.20;;;;;;;12.09;62.69;99179.30;436747;1251;140094;-64
2023/06/02 00:38:21;;;;;;;5.50;3.70;;;;;;;11.95;63.51;99176.14;436274;1253;140554;-64
2023/06/02 00:48:27;;;;;;;10.30;4.40;;;;;;;11.80;64.57;99181.95;436372;1254;140245;-64
2023/06/02 00:58:37;;;;;;;6.20;5.00;;;;;;;11.66;65.46;99184.44;436365;1254;139671;-65
2023/06/02 01:08:44;;;;;;;5.40;4.60;;;;;;;11.58;66.20;99183.92;436487;1253;139450;-64
2023/06/02 01:18:51;;;;;;;17.30;7.20;;;;;;;11.54;66.89;99180.41;436539;1253;139673;-64
2023/06/02 01:28:59;;;;;;;20.20;13.20;;;;;;;11.41;67.48;99180.85;436188;1254;140299;-63
2023/06/02 01:39:07;;;;;;;9.50;5.70;;;;;;;11.30;68.19;99190.38;436191;1251;139925;-64
2023/06/02 01:49:17;;;;;;;11.40;6.40;;;;;;;11.16;68.91;99186.82;436302;1256;139706;-64
2023/06/02 01:59:23;;;;;;;8.30;4.80;;;;;;;11.01;69.42;99186.67;436942;1255;140092;-63
2023/06/02 02:09:29;;;;;;;11.00;5.40;;;;;;;10.85;69.88;99179.04;436387;1253;139450;-65
2023/06/02 02:19:36;;;;;;;8.60;4.20;;;;;;;10.72;70.50;99174.26;436901;1253;140015;-64
2023/06/02 02:29:42;;;;;;;6.50;4.10;;;;;;;10.65;70.92;99176.60;436526;1253;139128;-63
2023/06/02 02:39:48;;;;;;;6.80;4.40;;;;;;;10.59;71.46;99191.77;436311;1254;140959;-64
2023/06/02 02:49:53;;;;;;;8.10;5.60;;;;;;;10.56;71.85;99191.62;436551;1253;140239;-64
2023/06/02 02:59:59;;;;;;;10.60;6.00;;;;;;;10.60;71.99;99189.77;436703;1253;140182;-64
2023/06/02 03:10:07;;;;;;;12.70;5.40;;;;;;;10.89;72.12;99191.61;436389;1253;139356;-63
2023/06/02 03:20:14;;;;;;;8.90;5.00;;;;;;;11.37;71.67;99195.66;436662;1252;139435;-63
2023/06/02 03:30:20;;;;;;;10.50;4.80;;;;;;;11.89;70.21;99198.86;436477;1254;141528;-63
2023/06/02 03:40:26;;;;;;;11.30;5.80;;;;;;;12.01;69.61;99207.23;436510;1251;140862;-63
2023/06/02 03:50:32;;;;;;;9.00;4.70;;;;;;;12.22;69.12;99209.92;436454;1253;141634;-64
2023/06/02 04:00:38;;;;;;;11.00;5.10;;;;;;;13.29;68.56;99225.15;436982;1252;139256;-63
2023/06/02 04:10:44;;;;;;;6.30;4.20;;;;;;;18.13;62.66;99227.41;436388;1251;139157;-63
2023/06/02 04:20:50;;;;;;;5.10;3.70;;;;;;;20.51;54.48;99228.45;436537;1251;139566;-64
2023/06/02 04:30:57;;;;;;;5.90;3.30;;;;;;;17.54;53.63;99241.83;436538;1254;139017;-64
2023/06/02 04:41:06;;;;;;;7.20;3.70;;;;;;;16.16;55.61;99249.91;436617;1251;138859;-64
2023/06/02 04:51:12;;;;;;;11.00;4.40;;;;;;;17.14;55.34;99247.61;436584;1251;139619;-64
2023/06/02 05:01:18;;;;;;;5.90;4.80;;;;;;;17.40;53.90;99258.53;437228;1251;139977;-63
2023/06/02 05:11:25;;;;;;;9.20;4.30;;;;;;;15.65;55.38;99263.36;436247;1254;139848;-63
2023/06/02 05:21:31;;;;;;;9.00;4.40;;;;;;;15.61;56.55;99264.41;436603;1251;138295;-63
2023/06/02 05:31:37;;;;;;;9.00;4.30;;;;;;;15.84;56.78;99278.91;436472;1253;138890;-64
2023/06/02 05:41:43;;;;;;;10.00;4.70;;;;;;;16.54;55.38;99273.30;436484;1251;139441;-63
2023/06/02 05:51:49;;;;;;;8.70;5.60;;;;;;;16.19;55.69;99277.90;436673;1253;138767;-63
2023/06/02 06:01:55;;;;;;;10.80;4.60;;;;;;;16.02;56.03;99287.56;436283;1251;139848;-64
2023/06/02 06:12:00;;;;;;;8.90;5.80;;;;;;;15.28;56.87;99297.04;435968;1251;140241;-63
2023/06/02 06:22:07;;;;;;;8.70;4.80;;;;;;;14.62;58.43;99302.24;435713;1251;138684;-64
2023/06/02 06:32:15;;;;;;;10.40;6.20;;;;;;;14.76;59.17;99303.73;436114;1251;140147;-64
2023/06/02 06:42:21;;;;;;;11.80;5.40;;;;;;;14.64;59.23;99303.36;436664;1252;140871;-63
2023/06/02 06:52:27;;;;;;;8.00;5.40;;;;;;;14.19;60.42;99320.32;436056;1251;140656;-65
2023/06/02 07:02:33;;;;;;;9.90;6.70;;;;;;;13.75;61.41;99333.61;435881;1251;139971;-64
2023/06/02 07:12:39;;;;;;;13.80;5.90;;;;;;;13.45;62.33;99343.31;436135;1251;139415;-62
2023/06/02 07:22:45;;;;;;;12.60;5.70;;;;;;;13.47;63.17;99349.31;436984;1251;142155;-63
2023/06/02 07:32:51;;;;;;;9.60;5.60;;;;;;;13.67;62.59;99357.29;436408;1249;139361;-59
2023/06/02 07:42:57;;;;;;;7.40;4.00;;;;;;;13.68;62.61;99366.46;437321;1251;140649;-64
2023/06/02 07:53:03;;;;;;;3.70;3.00;;;;;;;14.40;61.71;99370.17;436511;1251;139903;-64
2023/06/02 08:03:09;;;;;;;6.00;3.40;;;;;;;15.45;59.38;99369.88;436781;1251;140897;-63
2023/06/02 08:13:15;;;;;;;5.40;2.40;;;;;;;15.95;57.52;99373.26;436283;1253;140180;-63
2023/06/02 08:23:21;;;;;;;5.30;3.10;;;;;;;17.40;55.26;99379.73;435920;1250;141013;-64
2023/06/02 08:33:27;;;;;;;4.20;2.10;;;;;;;16.30;54.24;99387.81;436265;1251;139379;-64
2023/06/02 08:43:33;;;;;;;3.10;2.50;;;;;;;15.29;55.43;99403.42;449620;1249;140218;-66
2023/06/02 08:53:39;;;;;;;7.40;3.00;;;;;;;14.99;55.94;99424.44;437148;1253;138549;-64
2023/06/02 09:03:48;;;;;;;4.10;2.50;;;;;;;15.06;55.40;99434.48;437477;1251;139508;-64
2023/06/02 09:13:54;;;;;;;5.90;2.20;;;;;;;14.75;55.12;99446.88;437562;1251;139357;-64
2023/06/02 09:24:01;;;;;;;7.20;2.20;;;;;;;14.35;55.67;99445.05;436962;1251;139451;-64
2023/06/02 09:34:10;;;;;;;4.20;2.40;;;;;;;14.11;56.53;99453.98;436882;1251;138414;-68
2023/06/02 09:44:19;;;;;;;9.60;3.40;;;;;;;14.03;57.58;99464.34;437039;1251;138978;-64
2023/06/02 09:54:25;;;;;;;9.50;4.20;;;;;;;14.31;58.06;99474.98;437928;1253;139420;-64
2023/06/02 10:04:31;;;;;;;11.00;4.50;;;;;;;14.08;58.72;99477.84;437491;1251;139976;-63
2023/06/02 10:14:58;;;;;;;11.30;4.20;;;;;;;13.57;60.19;99491.73;437381;1249;140079;-63
2023/06/02 10:25:13;;;;;;;12.50;6.70;;;;;;;13.84;60.77;99498.95;437216;1250;139944;-63
2023/06/02 10:35:19;;;;;;;12.00;10.50;;;;;;;14.83;59.66;99504.95;437381;1250;140498;-64
2023/06/02 10:45:42;;;;;;;6.00;4.80;;;;;;;14.75;59.03;99515.65;436940;1250;139507;-62
2023/06/02 10:55:48;;;;;;;5.60;3.20;;;;;;;14.45;59.78;99516.45;436752;1251;139407;-64
2023/06/02 11:06:21;;;;;;;9.80;5.30;;;;;;;14.58;59.99;99517.69;436301;1251;140434;-64
2023/06/02 11:16:28;;;;;;;5.40;3.70;;;;;;;15.13;59.35;99529.63;437417;1253;140070;-64
2023/06/02 11:26:47;;;;;;;9.40;3.20;;;;;;;15.33;58.74;99539.02;436929;1251;140597;-65
2023/06/02 11:36:54;;;;;;;4.10;2.20;;;;;;;14.93;58.97;99547.63;436666;1251;140590;-63
2023/06/02 11:46:59;;;;;;;38.40;8.10;;;;;;;14.67;59.38;99560.48;437197;1253;139268;-62
2023/06/02 11:57:06;;;;;;;6.80;3.50;;;;;;;14.01;60.43;99576.27;436748;1251;139608;-63
2023/06/02 12:07:12;;;;;;;4.50;2.90;;;;;;;13.58;61.59;99591.17;436676;1250;139816;-63
2023/06/02 12:17:18;;;;;;;11.40;3.40;;;;;;;13.29;62.12;99603.36;436597;1251;139559;-64
2023/06/02 12:27:25;;;;;;;5.30;2.00;;;;;;;13.02;62.17;99611.31;436814;1251;142235;-65
2023/06/02 12:37:31;;;;;;;5.80;2.20;;;;;;;12.83;61.99;99625.32;437057;1253;141064;-64
2023/06/02 12:47:37;;;;;;;4.80;1.90;;;;;;;12.88;62.05;99629.69;436735;1251;139915;-64
2023/06/02 12:57:44;;;;;;;4.00;2.20;;;;;;;13.33;61.31;99628.71;436663;1251;139121;-63
2023/06/02 13:07:50;;;;;;;5.20;2.10;;;;;;;13.61;60.55;99626.84;436300;1251;139374;-64
2023/06/02 13:17:56;;;;;;;8.80;1.80;;;;;;;13.76;59.94;99627.83;436028;1251;139146;-63
2023/06/02 13:28:02;;;;;;;8.50;1.80;;;;;;;14.09;58.93;99634.64;436450;1251;139152;-64
2023/06/02 13:38:08;;;;;;;4.80;2.20;;;;;;;14.56;57.51;99630.00;436323;1253;139562;-64
2023/06/02 13:48:13;;;;;;;6.20;2.10;;;;;;;14.95;56.05;99634.69;436255;1251;138882;-63
2023/06/02 13:58:19;;;;;;;11.20;2.10;;;;;;;15.36;55.47;99639.34;436359;1250;140154;-63
2023/06/02 14:08:25;;;;;;;3.30;1.90;;;;;;;15.74;54.48;99636.86;436834;1252;138503;-64
2023/06/02 14:18:31;;;;;;;7.80;2.00;;;;;;;15.75;53.45;99637.67;436461;1252;139164;-65
2023/06/02 14:28:37;;;;;;;4.50;1.30;;;;;;;15.39;53.19;99640.14;436371;1251;139231;-64
2023/06/02 14:38:44;;;;;;;3.50;1.30;;;;;;;15.21;53.57;99638.73;436268;1250;141092;-64
2023/06/02 14:48:50;;;;;;;5.80;1.60;;;;;;;15.45;52.28;99637.55;436418;1253;138980;-64
2023/06/02 14:58:55;;;;;;;5.20;1.80;;;;;;;15.39;51.06;99636.75;436313;1251;138533;-63
2023/06/02 15:09:16;;;;;;;3.50;1.80;;;;;;;15.70;50.57;99630.10;436500;1251;138594;-63
2023/06/02 15:19:21;;;;;;;4.50;1.50;;;;;;;15.99;49.07;99632.54;436159;1253;138564;-63
2023/06/02 15:29:27;;;;;;;1.90;1.20;;;;;;;15.80;47.83;99628.90;436257;1253;138972;-64
2023/06/02 15:39:33;;;;;;;4.20;0.60;;;;;;;15.80;46.45;99622.06;436309;1251;139358;-63
2023/06/02 15:49:39;;;;;;;3.20;1.30;;;;;;;15.52;45.29;99628.98;436628;1253;139035;-64
2023/06/02 15:59:44;;;;;;;3.40;1.50;;;;;;;15.31;43.05;99633.36;436627;1251;139641;-64
2023/06/02 16:09:50;;;;;;;3.70;0.80;;;;;;;15.33;41.09;99631.25;436511;1251;138362;-64
2023/06/02 16:19:56;;;;;;;3.60;1.30;;;;;;;15.52;39.84;99627.18;436271;1253;139694;-63
2023/06/02 16:30:03;;;;;;;1.90;0.60;;;;;;;15.67;39.30;99644.84;436180;1253;139149;-64
2023/06/02 16:40:12;;;;;;;2.90;1.10;;;;;;;15.63;38.75;99654.36;436873;1251;139012;-65
2023/06/02 16:50:18;;;;;;;3.80;0.60;;;;;;;15.42;37.39;99661.77;436789;1251;139466;-64
2023/06/02 17:00:25;;;;;;;4.20;1.10;;;;;;;15.23;37.33;99661.39;436382;1251;139821;-64
2023/06/02 17:10:31;;;;;;;2.10;0.80;;;;;;;15.24;37.72;99674.00;436365;1252;139872;-63
2023/06/02 17:20:37;;;;;;;1.30;0.60;;;;;;;15.24;37.01;99686.65;436385;1253;139102;-63
2023/06/02 17:30:43;;;;;;;4.30;0.60;;;;;;;15.09;35.96;99695.83;436239;1255;140529;-64
2023/06/02 17:40:48;;;;;;;1.80;0.70;;;;;;;14.79;35.48;99709.50;435975;1254;138266;-63
2023/06/02 17:50:54;;;;;;;3.60;1.10;;;;;;;14.44;35.18;99719.60;436659;1254;139844;-63
2023/06/02 18:01:00;;;;;;;4.70;0.60;;;;;;;14.11;35.33;99731.48;436370;1251;140615;-64
2023/06/02 18:11:06;;;;;;;2.70;0.50;;;;;;;13.77;35.76;99743.48;436352;1254;139646;-63
2023/06/02 18:21:12;;;;;;;2.00;0.60;;;;;;;13.41;36.48;99760.88;437108;1251;138487;-65
2023/06/02 18:31:18;;;;;;;4.00;0.70;;;;;;;13.04;37.02;99781.94;436614;1253;139512;-64
2023/06/02 18:41:23;;;;;;;2.40;0.90;;;;;;;12.68;37.35;99800.15;436159;1253;138549;-63
2023/06/02 18:51:29;;;;;;;2.40;1.10;;;;;;;12.40;37.48;99813.27;436410;1253;138297;-65
2023/06/02 19:01:35;;;;;;;3.40;1.60;;;;;;;12.05;37.85;99833.26;436675;1253;138585;-64
2023/06/02 19:11:41;;;;;;;3.50;0.90;;;;;;;11.72;38.20;99850.82;436983;1253;139965;-64
2023/06/02 19:21:47;;;;;;;4.00;0.80;;;;;;;11.37;38.59;99865.81;437107;1253;150069;-64
2023/06/02 19:31:58;;;;;;;4.00;1.20;;;;;;;11.09;39.23;99884.90;436330;1251;140043;-65
2023/06/02 19:42:04;;;;;;;4.40;1.60;;;;;;;10.84;39.86;99899.56;436374;1253;140314;-64
2023/06/02 19:52:10;;;;;;;2.60;1.20;;;;;;;10.57;40.62;99921.44;436396;1254;138430;-64
2023/06/02 20:02:16;;;;;;;3.30;1.60;;;;;;;10.29;41.24;99925.64;436272;1253;139282;-64
2023/06/02 20:12:22;;;;;;;0.90;0.60;;;;;;;10.05;41.94;99928.20;436184;1251;138444;-65
2023/06/02 20:22:28;;;;;;;3.60;0.90;;;;;;;9.83;42.28;99939.73;436779;1253;138503;-68
2023/06/02 20:32:34;;;;;;;3.90;1.20;;;;;;;9.63;42.75;99939.95;436721;1254;139738;-64
2023/06/02 20:42:40;;;;;;;2.80;1.20;;;;;;;9.46;42.96;99950.31;436757;1253;138728;-64
2023/06/02 20:52:46;;;;;;;7.00;2.60;;;;;;;9.31;43.40;99957.40;436543;1253;139635;-64
2023/06/02 21:02:51;;;;;;;2.30;0.80;;;;;;;9.13;43.68;99966.88;436172;1253;139330;-65
2023/06/02 21:12:57;;;;;;;2.90;0.80;;;;;;;8.92;44.08;99981.03;436465;1253;139121;-64
2023/06/02 21:23:03;;;;;;;4.30;0.70;;;;;;;8.75;44.71;99994.98;436687;1253;139460;-64
2023/06/02 21:33:09;;;;;;;1.20;0.70;;;;;;;8.60;45.24;100000.45;436538;1254;138358;-64
2023/06/02 21:43:18;;;;;;;0.70;0.40;;;;;;;8.41;45.71;100014.73;437249;1250;139810;-65
2023/06/02 21:53:24;;;;;;;2.00;0.60;;;;;;;8.24;46.20;100028.65;436601;1251;139105;-64
2023/06/02 22:03:29;;;;;;;1.60;0.90;;;;;;;8.08;46.62;100033.89;436710;1254;138209;-64
2023/06/02 22:13:36;;;;;;;1.70;1.10;;;;;;;7.95;46.99;100041.64;436756;1254;138652;-64
2023/06/02 22:23:41;;;;;;;2.70;0.70;;;;;;;7.76;47.64;100050.88;436836;1253;138617;-65
2023/06/02 22:33:47;;;;;;;1.30;0.80;;;;;;;7.57;47.87;100051.00;436620;1253;139055;-64
2023/06/02 22:43:53;;;;;;;2.30;1.20;;;;;;;7.39;48.27;100058.23;436712;1254;140476;-65
2023/06/02 22:53:58;;;;;;;3.90;1.60;;;;;;;7.22;49.21;100068.36;436586;1254;140542;-64
2023/06/02 23:04:05;;;;;;;5.20;1.40;;;;;;;6.99;49.89;100071.39;436944;1254;139745;-65
2023/06/02 23:14:10;;;;;;;2.60;1.10;;;;;;;6.78;50.41;100070.14;436487;1254;140187;-64
2023/06/02 23:24:16;;;;;;;1.70;1.10;;;;;;;6.65;51.25;100078.14;436501;1251;139889;-64
2023/06/02 23:34:22;;;;;;;4.20;0.80;;;;;;;6.50;51.82;100086.38;436648;1253;139268;-64
2023/06/02 23:44:28;;;;;;;2.60;0.80;;;;;;;6.36;52.49;100092.84;436735;1254;139091;-63
2023/06/02 23:54:33;;;;;;;9.00;1.60;;;;;;;6.27;53.19;100100.81;436700;1253;141595;-64
